Time;durP1;ratioP1;P1;durP2;ratioP2;P2;SDS_P1;SDS_P2;PMS_P1;PMS_P2;Temp;Humidity;BMP_temperature;BMP_pressure;BME280_temperature;BME280_humidity;BME280_pressure;Samples;Min_cycle;Max_cycle;Signal;HPM_P1;HPM_P2
2021/10/22 00:00:08;;;;;;;;;;;6.20;99.90;;;;;;5072904;28;19965;-74
2021/10/22 00:02:34;;;;;;;;;;;6.20;99.90;;;;;;5092430;28;19908;-74
2021/10/22 00:05:00;;;;;;;;;;;6.20;99.90;;;;;;5093537;28;19909;-74
2021/10/22 00:07:26;;;;;;;;;;;6.20;99.90;;;;;;5093769;28;20259;-74
2021/10/22 00:09:51;;;;;;;;;;;6.20;99.90;;;;;;5093060;28;19946;-74
2021/10/22 00:12:17;;;;;;;;;;;6.10;99.90;;;;;;5093423;28;20370;-74
2021/10/22 00:14:42;;;;;;;;;;;6.10;99.90;;;;;;5093561;28;20289;-74
2021/10/22 00:17:09;;;;;;;;;;;6.20;99.90;;;;;;5093388;28;19915;-74
2021/10/22 00:19:35;;;;;;;;;;;6.20;99.90;;;;;;5075038;28;20327;-74
2021/10/22 00:22:01;;;;;;;;;;;6.20;99.90;;;;;;5092998;28;19912;-74
2021/10/22 00:24:26;;;;;;;;;;;6.30;99.90;;;;;;5093243;28;19961;-74
2021/10/22 00:26:52;;;;;;;;;;;6.30;99.90;;;;;;5074951;28;19954;-74
2021/10/22 00:29:17;;;;;;;;;;;6.30;99.90;;;;;;5093283;28;20310;-74
2021/10/22 00:31:43;;;;;;;;;;;6.30;99.90;;;;;;5080436;28;19977;-74
2021/10/22 00:34:08;;;;;;;;;;;6.30;99.90;;;;;;5072838;28;19908;-74
2021/10/22 00:36:35;;;;;;;;;;;6.30;99.90;;;;;;5072711;28;19947;-74
2021/10/22 00:39:01;;;;;;;;;;;6.20;99.90;;;;;;5072531;28;19912;-74
2021/10/22 00:41:27;;;;;;;;;;;6.10;99.90;;;;;;5072168;28;20362;-74
2021/10/22 00:43:52;;;;;;;;;;;6.00;99.90;;;;;;5072665;28;20378;-74
2021/10/22 00:46:18;;;;;;;;;;;6.00;99.90;;;;;;5054688;28;19922;-74
2021/10/22 00:48:44;;;;;;;;;;;6.10;99.90;;;;;;5072514;28;19916;-74
2021/10/22 00:51:13;;;;;;;;;;;6.10;99.90;;;;;;5072025;28;19990;-74
2021/10/22 00:53:39;;;;;;;;;;;6.10;99.90;;;;;;5072295;28;19924;-74
2021/10/22 00:56:06;;;;;;;;;;;6.20;99.90;;;;;;5072321;28;19958;-74
2021/10/22 00:58:33;;;;;;;;;;;6.20;99.90;;;;;;5072228;28;19912;-74
2021/10/22 01:00:58;;;;;;;;;;;6.20;99.90;;;;;;5077503;28;20320;-74
2021/10/22 01:03:24;;;;;;;;;;;6.20;99.90;;;;;;5092110;28;19915;-74
2021/10/22 01:05:49;;;;;;;;;;;6.20;99.90;;;;;;5092508;28;19953;-74
2021/10/22 01:08:15;;;;;;;;;;;6.20;99.90;;;;;;5092176;28;19908;-74
2021/10/22 01:10:40;;;;;;;;;;;6.20;99.90;;;;;;5092088;28;19994;-74
2021/10/22 01:13:07;;;;;;;;;;;6.20;99.90;;;;;;5092404;28;19908;-74
2021/10/22 01:15:33;;;;;;;;;;;6.20;99.90;;;;;;5092224;28;19908;-74
2021/10/22 01:18:00;;;;;;;;;;;6.20;99.90;;;;;;5092479;28;19908;-74
2021/10/22 01:20:26;;;;;;;;;;;6.20;99.90;;;;;;5091585;28;19912;-74
2021/10/22 01:22:52;;;;;;;;;;;6.20;99.90;;;;;;5073954;28;19912;-74
2021/10/22 01:25:20;;;;;;;;;;;6.30;99.90;;;;;;5091907;28;19912;-74
2021/10/22 01:27:46;;;;;;;;;;;6.30;99.90;;;;;;5092161;28;19908;-74
2021/10/22 01:30:13;;;;;;;;;;;6.20;99.90;;;;;;5090929;28;20393;-74
2021/10/22 01:32:39;;;;;;;;;;;6.30;99.90;;;;;;5071972;28;19908;-74
2021/10/22 01:35:06;;;;;;;;;;;6.30;99.90;;;;;;5053605;28;20012;-74
2021/10/22 01:37:31;;;;;;;;;;;6.30;99.90;;;;;;5072025;28;20639;-74
2021/10/22 01:39:57;;;;;;;;;;;6.20;99.90;;;;;;5070817;28;19912;-74
2021/10/22 01:42:23;;;;;;;;;;;6.20;99.90;;;;;;5071684;28;19917;-75
2021/10/22 01:44:49;;;;;;;;;;;6.20;99.90;;;;;;5071728;28;19999;-74
2021/10/22 01:47:15;;;;;;;;;;;6.20;99.90;;;;;;5053613;28;19995;-74
2021/10/22 01:49:41;;;;;;;;;;;6.20;99.90;;;;;;5071021;28;19920;-74
2021/10/22 01:52:06;;;;;;;;;;;6.20;99.90;;;;;;5071436;28;19912;-74
2021/10/22 01:54:32;;;;;;;;;;;6.20;99.90;;;;;;5071467;28;19961;-74
2021/10/22 01:56:57;;;;;;;;;;;6.20;99.90;;;;;;5071510;28;19955;-74
2021/10/22 01:59:23;;;;;;;;;;;6.20;99.90;;;;;;5071304;28;19912;-74
2021/10/22 02:01:49;;;;;;;;;;;6.20;99.90;;;;;;5083508;28;19908;-74
2021/10/22 02:04:14;;;;;;;;;;;6.20;99.90;;;;;;5091663;28;19942;-74
2021/10/22 02:06:40;;;;;;;;;;;6.20;99.90;;;;;;5091294;28;19908;-74
2021/10/22 02:09:05;;;;;;;;;;;6.20;99.90;;;;;;5091439;28;20267;-74
2021/10/22 02:11:31;;;;;;;;;;;6.20;99.90;;;;;;5090957;28;19969;-74
2021/10/22 02:13:56;;;;;;;;;;;6.20;99.90;;;;;;5091537;28;20431;-74
2021/10/22 02:16:22;;;;;;;;;;;6.10;99.90;;;;;;5091532;28;20439;-74
2021/10/22 02:18:47;;;;;;;;;;;6.10;99.90;;;;;;5091249;28;19909;-74
2021/10/22 02:21:13;;;;;;;;;;;6.10;99.90;;;;;;5090754;28;19918;-74
2021/10/22 02:23:38;;;;;;;;;;;6.10;99.90;;;;;;5090846;28;20362;-74
2021/10/22 02:26:04;;;;;;;;;;;6.00;99.90;;;;;;5091484;28;19908;-74
2021/10/22 02:28:29;;;;;;;;;;;6.00;99.90;;;;;;5091031;28;20326;-74
2021/10/22 02:30:55;;;;;;;;;;;6.00;99.90;;;;;;5085475;28;19951;-74
2021/10/22 02:33:21;;;;;;;;;;;6.00;99.90;;;;;;5070772;28;20290;-74
2021/10/22 02:35:47;;;;;;;;;;;6.00;99.90;;;;;;5071079;28;19908;-74
2021/10/22 02:38:13;;;;;;;;;;;6.00;99.90;;;;;;5070834;28;19908;-74
2021/10/22 02:40:38;;;;;;;;;;;6.00;99.90;;;;;;5070494;28;20363;-74
2021/10/22 02:43:04;;;;;;;;;;;6.00;99.90;;;;;;5055972;28;19909;-74
2021/10/22 02:45:29;;;;;;;;;;;6.00;99.90;;;;;;5074951;28;19923;-74
2021/10/22 02:47:55;;;;;;;;;;;5.90;99.90;;;;;;5074913;28;20322;-74
2021/10/22 02:50:21;;;;;;;;;;;5.90;99.90;;;;;;5074084;28;19974;-74
2021/10/22 02:52:48;;;;;;;;;;;5.90;99.90;;;;;;5074701;28;19908;-74
2021/10/22 02:55:14;;;;;;;;;;;5.80;99.90;;;;;;5074575;28;19912;-74
2021/10/22 02:57:39;;;;;;;;;;;5.70;99.90;;;;;;5074669;28;19908;-74
2021/10/22 03:00:05;;;;;;;;;;;5.60;99.90;;;;;;5073970;28;19912;-74
2021/10/22 03:02:31;;;;;;;;;;;5.50;99.90;;;;;;5092993;28;20006;-74
2021/10/22 03:04:56;;;;;;;;;;;5.30;99.90;;;;;;5094456;28;19947;-74
2021/10/22 03:07:22;;;;;;;;;;;5.20;99.90;;;;;;5094730;28;19908;-74
2021/10/22 03:09:47;;;;;;;;;;;5.10;99.90;;;;;;5093840;28;19916;-74
2021/10/22 03:12:13;;;;;;;;;;;5.00;99.90;;;;;;5094709;28;19931;-74
2021/10/22 03:14:38;;;;;;;;;;;4.80;99.90;;;;;;5076141;28;19908;-74
2021/10/22 03:17:04;;;;;;;;;;;4.70;99.90;;;;;;5076442;28;20045;-74
2021/10/22 03:19:30;;;;;;;;;;;4.70;99.90;;;;;;5076035;28;19959;-74
2021/10/22 03:21:55;;;;;;;;;;;4.70;99.90;;;;;;5093952;28;20403;-74
2021/10/22 03:24:20;;;;;;;;;;;4.50;99.90;;;;;;5094447;28;19912;-74
2021/10/22 03:26:46;;;;;;;;;;;4.50;99.90;;;;;;5094285;28;19915;-74
2021/10/22 03:29:12;;;;;;;;;;;4.40;99.90;;;;;;5094332;28;19909;-74
2021/10/22 03:31:37;;;;;;;;;;;4.30;99.90;;;;;;5082297;28;19909;-74
2021/10/22 03:34:03;;;;;;;;;;;4.30;99.90;;;;;;5073956;28;19908;-74
2021/10/22 03:36:28;;;;;;;;;;;4.30;99.90;;;;;;5073722;28;20453;-74
2021/10/22 03:38:53;;;;;;;;;;;4.20;99.90;;;;;;5073958;28;19915;-74
2021/10/22 03:41:19;;;;;;;;;;;4.20;99.90;;;;;;5073197;28;19920;-74
2021/10/22 03:43:45;;;;;;;;;;;4.00;99.90;;;;;;5073992;28;19908;-74
2021/10/22 03:46:10;;;;;;;;;;;3.80;99.90;;;;;;5073763;28;20580;-74
2021/10/22 03:48:36;;;;;;;;;;;3.70;99.90;;;;;;5073762;28;19908;-74
2021/10/22 03:51:01;;;;;;;;;;;3.60;99.90;;;;;;5072975;28;20404;-74
2021/10/22 03:53:27;;;;;;;;;;;3.60;99.90;;;;;;5073326;28;19909;-74
2021/10/22 03:55:53;;;;;;;;;;;3.60;99.90;;;;;;5073759;28;20395;-74
2021/10/22 03:58:19;;;;;;;;;;;3.50;99.90;;;;;;5073556;28;20336;-74
2021/10/22 04:00:47;;;;;;;;;;;3.40;99.90;;;;;;5076819;28;19978;-74
2021/10/22 04:03:14;;;;;;;;;;;3.30;99.90;;;;;;5093416;28;19912;-74
2021/10/22 04:05:41;;;;;;;;;;;3.20;99.90;;;;;;5093692;28;19912;-74
2021/10/22 04:08:06;;;;;;;;;;;3.10;99.90;;;;;;5075327;28;20337;-74
2021/10/22 04:10:32;;;;;;;;;;;3.10;99.90;;;;;;5092974;28;19916;-74
2021/10/22 04:12:57;;;;;;;;;;;2.90;99.90;;;;;;5093422;28;19912;-74
2021/10/22 04:15:23;;;;;;;;;;;2.80;99.90;;;;;;5093559;28;19912;-74
2021/10/22 04:17:48;;;;;;;;;;;2.70;99.90;;;;;;5093321;28;19953;-74
2021/10/22 04:20:14;;;;;;;;;;;2.60;99.90;;;;;;5092566;28;19916;-74
2021/10/22 04:22:40;;;;;;;;;;;2.60;99.90;;;;;;5093331;28;19999;-74
2021/10/22 04:25:06;;;;;;;;;;;2.60;99.90;;;;;;5075504;28;20355;-74
2021/10/22 04:27:32;;;;;;;;;;;2.60;99.90;;;;;;5093236;28;19912;-74
2021/10/22 04:29:59;;;;;;;;;;;2.70;99.90;;;;;;5092614;28;20041;-74
2021/10/22 04:32:25;;;;;;;;;;;2.70;99.90;;;;;;5072933;28;20299;-74
2021/10/22 04:34:50;;;;;;;;;;;2.60;99.90;;;;;;5054856;28;20018;-74
2021/10/22 04:42:55;;;;;;;;;;;2.30;99.90;;;;;;5073125;28;19916;-74
2021/10/22 04:45:21;;;;;;;;;;;2.20;99.90;;;;;;5072709;28;19908;-74
2021/10/22 04:47:46;;;;;;;;;;;2.20;99.90;;;;;;5072806;28;19913;-74
2021/10/22 04:50:12;;;;;;;;;;;2.10;99.90;;;;;;5072115;28;19914;-74
2021/10/22 04:52:38;;;;;;;;;;;2.10;99.90;;;;;;5072855;28;20351;-74
2021/10/22 04:55:04;;;;;;;;;;;2.10;99.90;;;;;;5072607;28;19920;-74
2021/10/22 04:57:30;;;;;;;;;;;2.00;99.90;;;;;;5072647;28;20344;-74
2021/10/22 04:59:56;;;;;;;;;;;2.00;99.90;;;;;;5072057;28;20033;-74
2021/10/22 05:02:21;;;;;;;;;;;2.00;99.90;;;;;;5089770;28;19912;-74
2021/10/22 05:04:47;;;;;;;;;;;2.00;99.90;;;;;;5073546;28;19908;-74
2021/10/22 05:07:12;;;;;;;;;;;1.90;99.90;;;;;;5092755;28;20370;-74
2021/10/22 05:09:38;;;;;;;;;;;1.80;99.90;;;;;;5092160;28;19919;-74
2021/10/22 05:12:06;;;;;;;;;;;1.80;99.90;;;;;;5092408;28;19912;-74
2021/10/22 05:14:32;;;;;;;;;;;1.80;99.90;;;;;;5092791;28;19990;-74
2021/10/22 05:16:57;;;;;;;;;;;1.80;99.90;;;;;;5074531;28;19909;-74
2021/10/22 05:19:23;;;;;;;;;;;1.70;99.90;;;;;;5092397;28;20285;-74
2021/10/22 05:21:48;;;;;;;;;;;1.70;99.90;;;;;;5092065;28;20606;-74
2021/10/22 05:24:14;;;;;;;;;;;1.60;99.90;;;;;;5092419;28;19908;-74
2021/10/22 05:26:40;;;;;;;;;;;1.70;99.90;;;;;;5092744;28;20007;-74
2021/10/22 05:29:05;;;;;;;;;;;1.70;99.90;;;;;;5075101;28;19908;-74
2021/10/22 05:31:30;;;;;;;;;;;1.70;99.90;;;;;;5080071;28;19912;-75
2021/10/22 05:33:56;;;;;;;;;;;1.80;99.90;;;;;;5072524;28;20346;-75
2021/10/22 05:36:23;;;;;;;;;;;1.80;99.90;;;;;;5071346;28;19916;-75
2021/10/22 05:38:51;;;;;;;;;;;1.90;99.90;;;;;;5071441;28;19923;-75
2021/10/22 05:41:16;;;;;;;;;;;1.80;99.90;;;;;;5068214;28;20278;-75
2021/10/22 05:43:42;;;;;;;;;;;1.60;99.90;;;;;;5071260;28;19908;-75
2021/10/22 05:46:07;;;;;;;;;;;1.80;99.90;;;;;;5071942;28;19909;-75
2021/10/22 05:48:33;;;;;;;;;;;2.30;99.90;;;;;;5071421;28;19908;-75
2021/10/22 05:50:58;;;;;;;;;;;2.40;99.90;;;;;;5071405;28;19908;-75
2021/10/22 05:53:24;;;;;;;;;;;2.60;99.90;;;;;;5071390;28;19955;-75
2021/10/22 05:55:49;;;;;;;;;;;2.70;99.90;;;;;;5071556;28;19913;-75
2021/10/22 05:58:15;;;;;;;;;;;3.00;99.90;;;;;;5071718;28;19962;-75
2021/10/22 06:00:42;;;;;;;;;;;3.30;99.90;;;;;;5074188;28;20350;-75
2021/10/22 06:03:08;;;;;;;;;;;3.30;99.90;;;;;;5076133;28;19920;-75
2021/10/22 06:05:33;;;;;;;;;;;3.50;99.90;;;;;;5053821;28;19908;-75
2021/10/22 06:07:59;;;;;;;;;;;3.40;99.90;;;;;;5053481;28;19916;-75
2021/10/22 06:10:25;;;;;;;;;;;3.40;99.90;;;;;;5070764;28;19916;-75
2021/10/22 06:12:51;;;;;;;;;;;3.50;99.90;;;;;;5071856;28;19925;-75
2021/10/22 06:15:16;;;;;;;;;;;3.40;99.90;;;;;;5071718;28;20513;-75
2021/10/22 06:17:42;;;;;;;;;;;3.40;99.90;;;;;;5075506;28;20019;-75
2021/10/22 06:20:12;;;;;;;;;;;3.40;99.90;;;;;;5077910;28;20011;-75
2021/10/22 06:25:04;;;;;;;;;;;3.50;99.90;;;;;;5094073;28;19912;-74
2021/10/22 06:27:29;;;;;;;;;;;3.60;99.90;;;;;;5093930;28;19908;-74
2021/10/22 06:29:55;;;;;;;;;;;3.60;99.90;;;;;;5076270;28;20346;-75
2021/10/22 06:32:21;;;;;;;;;;;3.60;99.90;;;;;;5083446;28;19915;-75
2021/10/22 06:34:46;;;;;;;;;;;3.50;99.90;;;;;;5077160;28;19915;-75
2021/10/22 06:37:12;;;;;;;;;;;3.30;99.90;;;;;;5090588;28;19934;-75
2021/10/22 06:39:38;;;;;;;;;;;3.40;99.90;;;;;;5063266;28;20389;-74
2021/10/22 06:42:04;;;;;;;;;;;3.30;99.90;;;;;;5086178;28;19916;-74
2021/10/22 06:44:29;;;;;;;;;;;3.40;99.90;;;;;;5085992;28;19908;-73
2021/10/22 06:46:55;;;;;;;;;;;3.30;99.90;;;;;;5080545;28;20065;-75
2021/10/22 06:49:21;;;;;;;;;;;3.30;99.90;;;;;;5085283;28;20268;-74
2021/10/22 06:51:47;;;;;;;;;;;3.20;99.90;;;;;;5077813;28;19927;-74
2021/10/22 06:54:13;;;;;;;;;;;3.30;99.90;;;;;;5083264;28;19909;-75
2021/10/22 06:56:38;;;;;;;;;;;3.30;99.90;;;;;;5056703;28;19942;-74
2021/10/22 06:59:04;;;;;;;;;;;3.30;99.90;;;;;;5077020;28;20011;-73
2021/10/22 07:01:30;;;;;;;;;;;3.30;99.90;;;;;;5089683;28;19955;-74
2021/10/22 07:03:55;;;;;;;;;;;3.20;99.90;;;;;;5097645;28;19979;-74
2021/10/22 07:09:04;;;;;;;;;;;3.20;99.90;;;;;;5076433;28;20003;-74
2021/10/22 07:11:30;;;;;;;;;;;3.30;99.90;;;;;;5058309;28;19964;-73
2021/10/22 07:13:57;;;;;;;;;;;3.40;99.90;;;;;;5075719;28;19909;-74
2021/10/22 07:16:26;;;;;;;;;;;3.50;99.90;;;;;;5075264;28;19962;-74
2021/10/22 07:18:51;;;;;;;;;;;3.60;99.90;;;;;;5087556;28;19958;-74
2021/10/22 07:21:18;;;;;;;;;;;3.70;99.90;;;;;;5095171;28;19916;-74
2021/10/22 07:23:46;;;;;;;;;;;3.90;99.90;;;;;;5095160;28;19912;-74
2021/10/22 07:26:12;;;;;;;;;;;4.00;99.90;;;;;;5081346;28;19912;-75
2021/10/22 07:28:38;;;;;;;;;;;4.00;99.90;;;;;;5079346;28;20379;-74
2021/10/22 07:31:04;;;;;;;;;;;4.30;99.90;;;;;;5080141;28;19915;-74
2021/10/22 07:33:30;;;;;;;;;;;4.40;99.90;;;;;;5061192;28;19979;-73
2021/10/22 07:35:56;;;;;;;;;;;4.50;99.90;;;;;;5077760;28;20013;-74
2021/10/22 07:38:22;;;;;;;;;;;4.60;99.90;;;;;;5076367;28;20232;-74
2021/10/22 07:40:48;;;;;;;;;;;4.80;99.90;;;;;;5073868;28;19959;-74
2021/10/22 07:43:14;;;;;;;;;;;5.00;99.90;;;;;;5056318;28;19967;-74
2021/10/22 07:45:41;;;;;;;;;;;5.10;99.90;;;;;;5074088;28;19908;-74
2021/10/22 07:48:06;;;;;;;;;;;5.30;99.90;;;;;;5074115;28;19909;-74
2021/10/22 07:50:32;;;;;;;;;;;5.40;99.90;;;;;;5073439;28;19917;-74
2021/10/22 07:52:57;;;;;;;;;;;5.50;99.90;;;;;;5074538;28;19914;-74
2021/10/22 07:55:23;;;;;;;;;;;5.70;99.90;;;;;;5074250;28;20290;-73
2021/10/22 07:57:48;;;;;;;;;;;5.80;99.90;;;;;;5074495;28;19955;-73
2021/10/22 08:00:14;;;;;;;;;;;5.90;99.90;;;;;;5056297;28;20347;-74
2021/10/22 08:02:40;;;;;;;;;;;6.00;99.90;;;;;;5096657;28;19916;-74
2021/10/22 08:05:07;;;;;;;;;;;6.20;99.90;;;;;;5096538;28;19925;-74
2021/10/22 08:07:37;;;;;;;;;;;6.40;99.90;;;;;;5078328;28;19915;-74
2021/10/22 08:10:03;;;;;;;;;;;6.70;99.90;;;;;;5078003;28;19923;-74
2021/10/22 08:12:28;;;;;;;;;;;8.90;99.90;;;;;;5096422;28;19908;-74
2021/10/22 08:14:54;;;;;;;;;;;10.50;99.90;;;;;;5078284;28;19908;-74
2021/10/22 08:17:20;;;;;;;;;;;11.50;99.90;;;;;;5096167;28;19958;-74
2021/10/22 08:20:10;;;;;;;;;;;12.30;99.90;;;;;;5096140;28;20378;-74
2021/10/22 08:22:33;;;;;;;;;;;12.50;99.90;;;;;;5095645;28;19916;-75
2021/10/22 08:25:01;;;;;;;;;;;13.10;99.90;;;;;;5096508;28;19914;-75
2021/10/22 08:27:28;;;;;;;;;;;13.40;99.90;;;;;;5096035;28;20388;-75
2021/10/22 08:29:54;;;;;;;;;;;14.40;99.90;;;;;;5095510;28;20369;-75
2021/10/22 08:32:19;;;;;;;;;;;14.40;99.90;;;;;;5095123;28;19915;-75
2021/10/22 08:34:45;;;;;;;;;;;14.90;99.20;;;;;;5076205;28;20321;-75
2021/10/22 08:37:11;;;;;;;;;;;15.70;98.00;;;;;;5075628;28;19955;-75
2021/10/22 08:39:42;;;;;;;;;;;15.90;97.50;;;;;;5074456;28;19917;-75
2021/10/22 08:42:10;;;;;;;;;;;15.40;95.20;;;;;;5075988;28;19908;-75
2021/10/22 08:44:36;;;;;;;;;;;15.50;94.80;;;;;;5076455;28;19908;-75
2021/10/22 08:47:02;;;;;;;;;;;15.60;95.70;;;;;;5076755;28;19920;-75
2021/10/22 08:49:28;;;;;;;;;;;16.50;93.90;;;;;;5076252;28;19908;-75
2021/10/22 08:51:58;;;;;;;;;;;15.70;94.60;;;;;;5075928;28;19916;-75
2021/10/22 08:54:24;;;;;;;;;;;14.90;94.80;;;;;;5075946;28;19938;-74
2021/10/22 08:56:50;;;;;;;;;;;14.60;95.20;;;;;;5076380;28;20314;-75
2021/10/22 08:59:15;;;;;;;;;;;15.60;94.60;;;;;;5076064;28;19920;-75
2021/10/22 09:02:02;;;;;;;;;;;16.40;94.10;;;;;;5089509;28;19912;-75
2021/10/22 09:04:33;;;;;;;;;;;17.20;92.80;;;;;;5096761;28;19915;-75
2021/10/22 09:06:59;;;;;;;;;;;16.80;91.70;;;;;;5095110;28;20370;-75
2021/10/22 09:09:24;;;;;;;;;;;17.10;91.70;;;;;;5092445;28;19908;-75
2021/10/22 09:11:50;;;;;;;;;;;16.10;91.80;;;;;;5074595;28;19922;-75
2021/10/22 09:14:16;;;;;;;;;;;15.90;91.30;;;;;;5093902;28;19915;-74
2021/10/22 09:16:43;;;;;;;;;;;15.50;92.60;;;;;;5095863;28;19919;-75
2021/10/22 09:19:09;;;;;;;;;;;16.80;91.80;;;;;;5095720;28;19908;-75
2021/10/22 09:21:35;;;;;;;;;;;14.80;91.30;;;;;;5097318;28;19915;-74
2021/10/22 09:24:14;;;;;;;;;;;14.80;92.30;;;;;;5098968;28;20275;-75
2021/10/22 09:26:40;;;;;;;;;;;15.00;91.90;;;;;;5098354;28;20293;-74
2021/10/22 09:29:18;;;;;;;;;;;16.10;91.70;;;;;;5095794;28;19912;-74
2021/10/22 09:31:46;;;;;;;;;;;16.50;91.80;;;;;;5092933;28;19947;-74
2021/10/22 09:34:11;;;;;;;;;;;16.10;90.80;;;;;;5074910;28;19987;-75
2021/10/22 09:36:38;;;;;;;;;;;15.50;91.80;;;;;;5092791;28;19966;-75
2021/10/22 09:39:05;;;;;;;;;;;14.80;91.50;;;;;;5092514;28;19908;-75
2021/10/22 09:41:30;;;;;;;;;;;16.60;90.60;;;;;;5093495;28;19912;-75
2021/10/22 09:43:56;;;;;;;;;;;17.80;88.90;;;;;;5074216;28;19908;-74
2021/10/22 09:46:23;;;;;;;;;;;16.90;87.30;;;;;;5092597;28;19937;-75
2021/10/22 09:48:51;;;;;;;;;;;14.10;91.50;;;;;;5074321;28;19915;-75
2021/10/22 09:51:24;;;;;;;;;;;14.10;92.00;;;;;;5091278;28;19961;-75
2021/10/22 09:53:50;;;;;;;;;;;13.10;93.10;;;;;;5093250;28;19915;-75
2021/10/22 09:56:18;;;;;;;;;;;12.30;93.80;;;;;;5092327;28;20002;-75
2021/10/22 09:58:52;;;;;;;;;;;11.40;94.00;;;;;;5092037;28;19908;-75
2021/10/22 10:01:18;;;;;;;;;;;10.30;95.80;;;;;;5087417;28;20004;-75
2021/10/22 10:03:43;;;;;;;;;;;10.10;96.10;;;;;;5085115;28;20038;-75
2021/10/22 10:06:09;;;;;;;;;;;10.90;95.40;;;;;;5075315;28;19981;-75
2021/10/22 10:08:36;;;;;;;;;;;11.30;94.60;;;;;;5092336;28;19954;-76
2021/10/22 10:11:03;;;;;;;;;;;10.60;94.10;;;;;;5092302;28;20007;-75
2021/10/22 10:13:33;;;;;;;;;;;11.40;94.10;;;;;;5091830;28;20138;-76
2021/10/22 10:16:01;;;;;;;;;;;11.90;94.20;;;;;;5092557;28;19908;-75
2021/10/22 10:18:28;;;;;;;;;;;11.80;93.90;;;;;;5093068;28;19919;-76
2021/10/22 10:20:54;;;;;;;;;;;12.30;92.70;;;;;;5092521;28;20264;-74
2021/10/22 10:23:19;;;;;;;;;;;12.00;92.50;;;;;;5092622;28;19908;-76
2021/10/22 10:25:45;;;;;;;;;;;11.00;93.70;;;;;;5074782;28;19973;-75
2021/10/22 10:28:10;;;;;;;;;;;11.80;92.60;;;;;;5092717;28;19944;-75
2021/10/22 10:30:39;;;;;;;;;;;11.40;92.20;;;;;;5087161;28;19923;-75
2021/10/22 10:33:06;;;;;;;;;;;11.70;92.00;;;;;;5073956;28;19909;-75
2021/10/22 10:35:34;;;;;;;;;;;11.90;90.70;;;;;;5091695;28;20313;-75
2021/10/22 10:37:59;;;;;;;;;;;13.00;91.00;;;;;;5092881;28;19975;-75
2021/10/22 10:40:26;;;;;;;;;;;13.50;90.20;;;;;;5092706;28;20308;-75
2021/10/22 10:42:53;;;;;;;;;;;12.90;91.40;;;;;;5093545;28;19912;-75
2021/10/22 10:45:21;;;;;;;;;;;14.40;91.90;;;;;;5092835;28;19912;-75
2021/10/22 10:47:59;;;;;;;;;;;14.30;89.40;;;;;;5092284;28;19912;-75
2021/10/22 10:50:39;;;;;;;;;;;13.80;86.60;;;;;;5091676;28;19935;-75
2021/10/22 10:53:06;;;;;;;;;;;13.10;90.00;;;;;;5074283;28;19994;-74
2021/10/22 10:55:33;;;;;;;;;;;13.50;90.50;;;;;;5092393;28;20662;-75
2021/10/22 10:58:01;;;;;;;;;;;13.40;90.30;;;;;;5091692;28;20362;-76
2021/10/22 11:00:31;;;;;;;;;;;11.60;90.40;;;;;;5091236;28;19912;-75
2021/10/22 11:03:02;;;;;;;;;;;10.20;89.30;;;;;;5092321;28;20263;-75
2021/10/22 11:08:13;;;;;;;;;;;10.40;92.10;;;;;;5096414;28;19908;-75
2021/10/22 11:11:02;;;;;;;;;;;10.30;93.30;;;;;;5094676;28;20384;-76
2021/10/22 11:13:43;;;;;;;;;;;11.50;90.50;;;;;;5095678;28;19909;-76
2021/10/22 11:16:10;;;;;;;;;;;11.10;88.50;;;;;;5094671;28;19908;-76
2021/10/22 11:18:36;;;;;;;;;;;10.40;90.20;;;;;;5092591;28;19908;-75
2021/10/22 11:21:02;;;;;;;;;;;9.90;90.00;;;;;;5080425;28;19912;-75
2021/10/22 11:23:28;;;;;;;;;;;9.30;91.10;;;;;;5075870;28;19908;-75
2021/10/22 11:25:55;;;;;;;;;;;9.40;92.90;;;;;;5061180;28;19915;-75
2021/10/22 11:28:28;;;;;;;;;;;9.30;91.50;;;;;;5058935;28;20036;-75
2021/10/22 11:30:54;;;;;;;;;;;9.10;90.60;;;;;;5087814;28;19923;-75
2021/10/22 11:33:21;;;;;;;;;;;9.10;91.90;;;;;;5085522;28;19931;-75
2021/10/22 11:35:47;;;;;;;;;;;9.10;91.60;;;;;;5087657;28;20405;-76
2021/10/22 11:38:13;;;;;;;;;;;9.20;92.00;;;;;;5090833;28;19908;-75
2021/10/22 11:40:39;;;;;;;;;;;9.10;92.00;;;;;;5077976;28;19923;-75
2021/10/22 11:43:08;;;;;;;;;;;9.10;90.90;;;;;;5075616;28;19909;-75
2021/10/22 11:45:33;;;;;;;;;;;9.20;91.30;;;;;;5079976;28;19915;-75
2021/10/22 11:47:59;;;;;;;;;;;9.00;91.40;;;;;;5057371;28;19909;-74
2021/10/22 11:50:29;;;;;;;;;;;9.20;90.70;;;;;;5085833;28;19956;-75
2021/10/22 11:52:54;;;;;;;;;;;9.10;89.90;;;;;;5071411;28;19915;-75
2021/10/22 11:55:21;;;;;;;;;;;9.10;88.60;;;;;;5070908;28;19908;-74
2021/10/22 11:57:48;;;;;;;;;;;9.10;87.70;;;;;;5073276;28;20290;-75
2021/10/22 12:00:14;;;;;;;;;;;9.00;90.30;;;;;;5071617;28;20393;-75
2021/10/22 12:02:40;;;;;;;;;;;9.20;89.70;;;;;;5072376;28;20003;-74
2021/10/22 12:05:06;;;;;;;;;;;9.10;89.10;;;;;;5077291;28;20419;-74
2021/10/22 12:07:36;;;;;;;;;;;9.10;88.00;;;;;;5090351;28;20027;-75
2021/10/22 12:10:04;;;;;;;;;;;9.10;85.10;;;;;;5084614;28;20008;-75
2021/10/22 12:12:37;;;;;;;;;;;9.10;86.80;;;;;;5081361;28;19908;-75
2021/10/22 12:15:03;;;;;;;;;;;9.10;84.30;;;;;;5072535;28;19951;-75
2021/10/22 12:17:29;;;;;;;;;;;9.10;89.10;;;;;;5054878;28;19915;-75
2021/10/22 12:19:58;;;;;;;;;;;9.20;90.00;;;;;;5072353;28;19913;-74
2021/10/22 12:22:25;;;;;;;;;;;9.00;90.80;;;;;;5076938;28;19915;-75
2021/10/22 12:24:52;;;;;;;;;;;9.00;91.50;;;;;;5075285;28;20416;-75
2021/10/22 12:27:18;;;;;;;;;;;9.10;90.50;;;;;;5090650;28;19996;-76
2021/10/22 12:30:03;;;;;;;;;;;9.10;89.00;;;;;;5090709;28;20251;-76
2021/10/22 12:32:32;;;;;;;;;;;9.10;91.00;;;;;;5063165;28;19946;-75
2021/10/22 12:34:58;;;;;;;;;;;9.10;90.20;;;;;;5093944;28;20204;-76
2021/10/22 12:37:32;;;;;;;;;;;9.20;90.00;;;;;;5062883;28;19969;-74
2021/10/22 12:39:57;;;;;;;;;;;9.10;90.00;;;;;;5084606;28;20334;-74
2021/10/22 12:42:27;;;;;;;;;;;9.10;90.10;;;;;;5083007;28;20000;-75
2021/10/22 12:45:11;;;;;;;;;;;9.10;90.80;;;;;;5070961;28;19912;-76
2021/10/22 12:47:37;;;;;;;;;;;9.10;90.10;;;;;;5069996;28;20163;-76
2021/10/22 12:50:03;;;;;;;;;;;9.10;91.10;;;;;;5076160;28;19919;-76
2021/10/22 12:52:28;;;;;;;;;;;9.00;90.10;;;;;;5089816;28;19908;-75
2021/10/22 12:54:54;;;;;;;;;;;9.00;91.00;;;;;;5093201;28;20053;-74
2021/10/22 12:57:20;;;;;;;;;;;9.20;90.30;;;;;;5082613;28;19908;-75
2021/10/22 12:59:46;;;;;;;;;;;9.20;90.00;;;;;;5057396;28;19939;-74
2021/10/22 13:02:25;;;;;;;;;;;9.20;91.10;;;;;;5085758;28;19912;-74
2021/10/22 13:05:07;;;;;;;;;;;9.30;91.20;;;;;;5079672;28;19915;-75
2021/10/22 13:07:53;;;;;;;;;;;9.20;90.80;;;;;;5073399;28;19995;-76
2021/10/22 13:10:23;;;;;;;;;;;9.40;89.60;;;;;;5065650;28;19916;-76
2021/10/22 13:13:01;;;;;;;;;;;9.20;90.90;;;;;;5092729;28;20438;-76
2021/10/22 13:20:46;;;;;;;;;;;9.40;91.10;;;;;;5083425;28;19923;-74
2021/10/22 13:23:14;;;;;;;;;;;9.20;91.10;;;;;;5078712;28;19919;-74
2021/10/22 13:25:40;;;;;;;;;;;9.20;91.30;;;;;;5069401;28;19909;-73
2021/10/22 13:28:07;;;;;;;;;;;9.20;90.20;;;;;;5085195;28;19919;-75
2021/10/22 13:30:41;;;;;;;;;;;9.20;90.70;;;;;;5086207;28;19908;-74
2021/10/22 13:33:11;;;;;;;;;;;9.20;91.20;;;;;;5074374;28;19919;-76
2021/10/22 13:35:36;;;;;;;;;;;9.10;91.10;;;;;;5084173;28;19908;-76
2021/10/22 13:38:02;;;;;;;;;;;8.90;92.50;;;;;;5074252;28;19978;-75
2021/10/22 13:40:28;;;;;;;;;;;8.90;92.60;;;;;;5069782;28;19912;-76
2021/10/22 13:42:53;;;;;;;;;;;9.00;92.50;;;;;;5073457;28;19915;-76
2021/10/22 13:45:19;;;;;;;;;;;9.00;92.30;;;;;;5066029;28;20371;-75
2021/10/22 13:47:44;;;;;;;;;;;9.10;92.00;;;;;;5077822;28;19916;-75
2021/10/22 13:50:10;;;;;;;;;;;9.10;91.60;;;;;;5078874;28;19908;-74
2021/10/22 13:52:36;;;;;;;;;;;9.10;92.20;;;;;;5069919;28;19916;-76
2021/10/22 13:55:02;;;;;;;;;;;9.10;91.30;;;;;;5071907;28;20375;-76
2021/10/22 13:57:28;;;;;;;;;;;9.30;91.80;;;;;;5092527;28;20189;-76
2021/10/22 13:59:54;;;;;;;;;;;9.20;92.10;;;;;;5089876;28;20329;-76
2021/10/22 14:02:19;;;;;;;;;;;9.10;92.50;;;;;;5073992;28;20416;-76
2021/10/22 14:04:44;;;;;;;;;;;9.10;93.50;;;;;;5090105;28;20289;-72
2021/10/22 14:07:10;;;;;;;;;;;9.00;93.20;;;;;;5082443;28;19915;-76
2021/10/22 14:09:37;;;;;;;;;;;9.00;94.00;;;;;;5070795;28;19959;-75
2021/10/22 14:20:09;;;;;;;;;;;9.00;94.00;;;;;;5078349;28;19923;-73
2021/10/22 14:30:58;;;;;;;;;;;9.00;94.90;;;;;;5072616;28;19915;-74
2021/10/22 14:33:24;;;;;;;;;;;9.00;94.20;;;;;;5080819;28;19908;-74
2021/10/22 14:35:49;;;;;;;;;;;8.90;94.60;;;;;;5088445;28;19957;-75
2021/10/22 14:38:15;;;;;;;;;;;8.80;94.40;;;;;;5076640;28;19947;-76
2021/10/22 14:40:41;;;;;;;;;;;8.80;94.90;;;;;;5089680;28;19912;-73
2021/10/22 14:43:10;;;;;;;;;;;8.80;94.50;;;;;;5080971;28;19916;-77
2021/10/22 14:45:42;;;;;;;;;;;8.70;95.00;;;;;;5094044;28;19915;-75
2021/10/22 14:48:14;;;;;;;;;;;8.70;95.70;;;;;;5076424;28;20085;-76
2021/10/22 14:50:42;;;;;;;;;;;8.60;95.90;;;;;;5077657;28;19995;-75
2021/10/22 14:55:43;;;;;;;;;;;8.70;95.10;;;;;;5083366;28;19958;-74
2021/10/22 14:58:09;;;;;;;;;;;8.60;95.40;;;;;;5091043;28;20019;-74
2021/10/22 15:00:34;;;;;;;;;;;8.50;95.60;;;;;;5058418;28;20140;-74